createdAt,value
2022-11-27T00:00:29.012Z,45.82
2022-11-27T00:02:56.180Z,46.13
2022-11-27T00:05:23.355Z,45.80
2022-11-27T00:07:50.588Z,45.92
2022-11-27T00:10:17.810Z,45.86
2022-11-27T00:12:44.895Z,45.89
2022-11-27T00:15:16.989Z,46.01
2022-11-27T00:17:44.352Z,45.87
2022-11-27T00:20:11.434Z,45.86
2022-11-27T00:22:38.484Z,45.97
2022-11-27T00:25:05.555Z,45.70
2022-11-27T00:27:32.707Z,46.06
2022-11-27T00:29:59.792Z,45.98
2022-11-27T00:32:26.902Z,45.84
2022-11-27T00:34:54.023Z,46.01
2022-11-27T00:37:21.094Z,45.93
2022-11-27T00:39:48.229Z,45.77
2022-11-27T00:42:15.302Z,45.75
2022-11-27T00:44:42.499Z,46.07
2022-11-27T00:47:09.592Z,45.89
2022-11-27T00:49:36.731Z,46.02
2022-11-27T00:52:03.841Z,45.76
2022-11-27T00:54:30.906Z,45.71
2022-11-27T00:56:58.023Z,45.75
2022-11-27T00:59:25.090Z,45.96
2022-11-27T01:01:52.188Z,45.94
2022-11-27T01:04:19.527Z,45.84
2022-11-27T01:06:46.726Z,45.63
2022-11-27T01:09:15.485Z,45.92
2022-11-27T01:11:42.568Z,45.76
2022-11-27T01:14:09.644Z,45.81
2022-11-27T01:16:42.624Z,45.76
2022-11-27T01:19:10.130Z,45.98
2022-11-27T01:21:37.199Z,45.92
2022-11-27T01:24:04.306Z,45.86
2022-11-27T01:26:31.439Z,45.57
2022-11-27T01:28:58.653Z,45.74
2022-11-27T01:31:25.793Z,45.78
2022-11-27T01:33:52.950Z,45.80
2022-11-27T01:36:20.054Z,45.73
2022-11-27T01:38:47.122Z,45.83
2022-11-27T01:41:14.202Z,45.66
2022-11-27T01:43:41.996Z,45.47
2022-11-27T01:46:09.643Z,45.57
2022-11-27T01:48:36.774Z,45.47
2022-11-27T01:51:03.843Z,45.88
2022-11-27T01:53:30.922Z,45.60
2022-11-27T01:55:58.027Z,45.55
2022-11-27T01:58:25.126Z,45.62
2022-11-27T02:00:52.251Z,45.57
2022-11-27T02:03:19.419Z,45.50
2022-11-27T02:05:46.595Z,45.66
2022-11-27T02:08:13.721Z,45.71
2022-11-27T02:10:40.801Z,45.65
2022-11-27T02:13:07.862Z,45.63
2022-11-27T02:15:34.923Z,45.62
2022-11-27T02:18:02.077Z,45.52
2022-11-27T02:20:29.170Z,45.47
2022-11-27T02:22:56.273Z,45.57
2022-11-27T02:25:28.115Z,45.59
2022-11-27T02:27:55.595Z,45.39
2022-11-27T02:30:22.716Z,45.45
2022-11-27T02:32:49.860Z,45.63
2022-11-27T02:35:16.978Z,45.76
2022-11-27T02:37:44.103Z,45.64
2022-11-27T02:40:11.168Z,45.60
2022-11-27T02:42:38.628Z,45.38
2022-11-27T02:45:05.789Z,45.26
2022-11-27T02:47:33.754Z,45.53
2022-11-27T02:50:00.896Z,45.51
2022-11-27T02:52:28.046Z,45.58
2022-11-27T02:54:55.155Z,45.48
2022-11-27T02:57:22.246Z,45.58
2022-11-27T02:59:49.371Z,45.25
2022-11-27T03:02:16.530Z,45.47
2022-11-27T03:04:43.709Z,45.28
2022-11-27T03:07:10.813Z,45.33
2022-11-27T03:09:37.966Z,45.49
2022-11-27T03:12:05.125Z,45.44
2022-11-27T03:14:32.203Z,45.36
2022-11-27T03:16:59.405Z,45.44
2022-11-27T03:19:26.500Z,45.45
2022-11-27T03:21:53.679Z,45.23
2022-11-27T03:24:20.782Z,45.28
2022-11-27T03:26:47.891Z,45.52
2022-11-27T03:29:15.017Z,45.22
2022-11-27T03:31:42.141Z,45.49
2022-11-27T03:34:09.293Z,45.49
2022-11-27T03:36:36.374Z,45.15
2022-11-27T03:39:03.431Z,45.27
2022-11-27T03:41:30.545Z,45.11
2022-11-27T03:43:57.785Z,45.20
2022-11-27T03:46:25.004Z,45.14
2022-11-27T03:48:52.117Z,45.34
2022-11-27T03:51:19.194Z,45.10
2022-11-27T03:53:46.267Z,45.25
2022-11-27T03:56:13.331Z,45.03
2022-11-27T03:58:40.439Z,45.12
2022-11-27T04:01:07.560Z,45.05
2022-11-27T04:03:36.049Z,45.21
2022-11-27T04:06:03.203Z,45.23
2022-11-27T04:08:30.286Z,45.10
2022-11-27T04:10:57.366Z,45.24
2022-11-27T04:13:25.298Z,45.41
2022-11-27T04:15:52.484Z,45.33
2022-11-27T04:18:19.585Z,45.31
2022-11-27T04:20:46.738Z,45.16
2022-11-27T04:23:13.853Z,45.16
2022-11-27T04:25:41.015Z,44.92
2022-11-27T04:28:08.078Z,45.13
2022-11-27T04:30:35.232Z,45.02
2022-11-27T04:33:02.307Z,45.26
2022-11-27T04:35:29.420Z,44.97
2022-11-27T04:37:56.502Z,45.13
2022-11-27T04:40:23.603Z,45.10
2022-11-27T04:42:50.887Z,44.98
2022-11-27T04:45:18.066Z,45.15
2022-11-27T04:47:45.157Z,44.83
2022-11-27T04:50:12.266Z,44.83
2022-11-27T04:52:39.392Z,45.00
2022-11-27T04:55:06.475Z,45.06
2022-11-27T04:57:33.618Z,44.72
2022-11-27T05:00:00.694Z,44.86
2022-11-27T05:02:27.815Z,44.93
2022-11-27T05:04:54.998Z,45.05
2022-11-27T05:07:22.187Z,45.03
2022-11-27T05:09:49.293Z,44.85
2022-11-27T05:12:16.367Z,44.92
2022-11-27T05:14:43.509Z,44.92
2022-11-27T05:17:10.633Z,44.83
2022-11-27T05:19:37.703Z,44.70
2022-11-27T05:22:04.791Z,44.72
2022-11-27T05:24:31.894Z,44.89
2022-11-27T05:26:59.001Z,44.67
2022-11-27T05:29:26.069Z,44.78
2022-11-27T05:31:53.419Z,44.65
2022-11-27T05:34:20.556Z,44.56
2022-11-27T05:36:47.665Z,44.81
2022-11-27T05:39:14.768Z,44.85
2022-11-27T05:41:41.886Z,44.68
2022-11-27T05:44:08.978Z,44.73
2022-11-27T05:46:36.101Z,44.69
2022-11-27T05:49:03.242Z,44.62
2022-11-27T05:51:30.388Z,44.76
2022-11-27T05:53:57.510Z,44.68
2022-11-27T05:56:24.615Z,44.47
2022-11-27T05:58:52.088Z,44.43
2022-11-27T06:01:19.231Z,44.68
2022-11-27T06:03:46.327Z,44.64
2022-11-27T06:06:13.460Z,44.71
2022-11-27T06:08:40.534Z,44.70
2022-11-27T06:11:07.825Z,44.62
2022-11-27T06:13:34.890Z,44.57
2022-11-27T06:16:01.983Z,44.48
2022-11-27T06:18:29.124Z,44.53
2022-11-27T06:20:56.196Z,44.47
2022-11-27T06:23:23.335Z,44.43
2022-11-27T06:25:50.621Z,44.33
2022-11-27T06:28:17.678Z,44.59
2022-11-27T06:30:44.751Z,44.51
2022-11-27T06:33:11.830Z,44.24
2022-11-27T06:35:38.949Z,44.51
2022-11-27T06:38:06.041Z,44.37
2022-11-27T06:40:33.173Z,44.19
2022-11-27T06:43:00.244Z,44.41
2022-11-27T06:45:27.378Z,44.32
2022-11-27T06:47:54.478Z,44.25
2022-11-27T06:50:21.645Z,44.37
2022-11-27T06:52:48.704Z,44.30
2022-11-27T06:55:16.420Z,44.38
2022-11-27T06:57:43.481Z,44.39
2022-11-27T07:00:10.576Z,44.38
2022-11-27T07:02:37.719Z,44.31
2022-11-27T07:05:04.945Z,44.35
2022-11-27T07:07:32.129Z,44.17
2022-11-27T07:09:59.210Z,44.09
2022-11-27T07:12:26.273Z,44.10
2022-11-27T07:14:53.348Z,44.31
2022-11-27T07:17:20.413Z,44.11
2022-11-27T07:19:47.584Z,44.23
2022-11-27T07:22:16.298Z,44.09
2022-11-27T07:24:43.581Z,44.17
2022-11-27T07:27:10.661Z,44.27
2022-11-27T07:29:37.746Z,43.94
2022-11-27T07:32:04.855Z,44.17
2022-11-27T07:34:32.008Z,44.17
2022-11-27T07:36:59.100Z,44.08
2022-11-27T07:39:46.642Z,44.02
2022-11-27T07:45:00.297Z,44.00
2022-11-27T07:47:27.410Z,43.89
2022-11-27T07:49:55.259Z,43.95
2022-11-27T07:52:22.320Z,44.09
2022-11-27T07:54:49.383Z,44.17
2022-11-27T07:57:16.443Z,43.82
2022-11-27T07:59:47.292Z,43.91
2022-11-27T08:02:14.826Z,43.98
2022-11-27T08:04:42.256Z,44.11
2022-11-27T08:07:09.609Z,43.93
2022-11-27T08:09:37.853Z,44.04
2022-11-27T08:12:04.966Z,43.99
2022-11-27T08:14:32.094Z,43.90
2022-11-27T08:16:59.194Z,43.77
2022-11-27T08:19:26.269Z,43.89
2022-11-27T08:21:53.365Z,43.93
2022-11-27T08:24:20.478Z,43.77
2022-11-27T08:26:47.568Z,43.75
2022-11-27T08:29:14.635Z,43.91
2022-11-27T08:31:41.869Z,43.75
2022-11-27T08:34:08.976Z,44.07
2022-11-27T08:36:36.050Z,43.83
2022-11-27T08:39:03.188Z,43.80
2022-11-27T08:41:30.323Z,43.88
2022-11-27T08:43:57.397Z,43.70
2022-11-27T08:46:24.449Z,43.54
2022-11-27T08:48:51.539Z,43.84
2022-11-27T08:51:18.637Z,44.00
2022-11-27T08:53:45.842Z,43.89
2022-11-27T08:56:13.032Z,43.73
2022-11-27T08:58:41.227Z,43.75
2022-11-27T09:01:08.466Z,43.83
2022-11-27T09:03:35.685Z,43.68
2022-11-27T09:06:02.869Z,43.77
2022-11-27T09:08:29.921Z,43.61
2022-11-27T09:10:57.012Z,43.71
2022-11-27T09:13:24.113Z,43.62
2022-11-27T09:15:51.191Z,43.59
2022-11-27T09:18:18.250Z,43.47
2022-11-27T09:20:46.646Z,43.66
2022-11-27T09:23:14.598Z,43.48
2022-11-27T09:25:41.964Z,43.55
2022-11-27T09:28:09.032Z,43.67
2022-11-27T09:30:36.097Z,43.53
2022-11-27T09:33:06.562Z,43.40
2022-11-27T09:35:33.672Z,43.36
2022-11-27T09:38:00.782Z,43.65
2022-11-27T09:40:27.849Z,43.67
2022-11-27T09:42:54.957Z,43.53
2022-11-27T09:45:22.042Z,43.41
2022-11-27T09:47:49.168Z,43.34
2022-11-27T09:50:16.298Z,43.48
2022-11-27T09:52:43.371Z,43.56
2022-11-27T09:55:10.434Z,43.39
2022-11-27T09:57:37.497Z,43.47
2022-11-27T10:00:04.584Z,43.54
2022-11-27T10:02:31.826Z,43.46
2022-11-27T10:05:13.792Z,43.36
2022-11-27T10:07:41.239Z,43.53
2022-11-27T10:10:08.359Z,43.51
2022-11-27T10:12:35.459Z,43.26
2022-11-27T10:15:04.008Z,43.50
2022-11-27T10:17:31.233Z,43.25
2022-11-27T10:19:58.298Z,43.40
2022-11-27T10:22:25.381Z,43.60
2022-11-27T10:24:53.900Z,43.25
2022-11-27T10:27:21.072Z,43.30
2022-11-27T10:29:50.237Z,43.32
2022-11-27T10:32:46.647Z,43.35
2022-11-27T10:35:04.686Z,43.31
2022-11-27T10:37:31.810Z,43.53
2022-11-27T10:39:58.920Z,43.50
2022-11-27T10:42:26.070Z,43.46
2022-11-27T10:44:53.163Z,43.41
2022-11-27T10:47:20.226Z,43.42
2022-11-27T10:49:48.622Z,43.14
2022-11-27T10:52:15.729Z,43.38
2022-11-27T10:54:43.376Z,43.24
2022-11-27T10:57:10.846Z,43.17
2022-11-27T10:59:38.126Z,43.35
2022-11-27T11:02:07.549Z,43.28
2022-11-27T11:04:38.322Z,43.20
2022-11-27T11:07:05.926Z,43.22
2022-11-27T11:09:33.017Z,43.24
2022-11-27T11:12:00.097Z,43.24
2022-11-27T11:14:27.163Z,43.18
2022-11-27T11:16:54.332Z,43.20
2022-11-27T11:19:21.435Z,43.16
2022-11-27T11:21:48.505Z,43.20
2022-11-27T11:24:15.617Z,43.39
2022-11-27T11:26:42.677Z,43.21
2022-11-27T11:29:09.733Z,43.11
2022-11-27T11:31:36.877Z,43.20
2022-11-27T11:34:04.075Z,43.34
2022-11-27T11:36:31.169Z,43.08
2022-11-27T11:38:58.240Z,43.12
2022-11-27T11:41:25.457Z,43.11
2022-11-27T11:43:52.537Z,43.32
2022-11-27T11:46:19.768Z,43.31
2022-11-27T11:48:46.857Z,43.21
2022-11-27T11:51:13.938Z,43.34
2022-11-27T11:53:41.141Z,43.11
2022-11-27T11:56:08.265Z,43.28
2022-11-27T11:58:35.327Z,43.32
2022-11-27T12:01:25.995Z,43.05
2022-11-27T12:03:50.139Z,43.44
2022-11-27T12:06:17.210Z,43.31
2022-11-27T12:08:44.294Z,43.35
2022-11-27T12:11:11.375Z,43.35
2022-11-27T12:13:39.235Z,43.27
2022-11-27T12:16:07.565Z,43.14
2022-11-27T12:18:34.718Z,43.48
2022-11-27T12:21:01.887Z,43.42
2022-11-27T12:23:28.994Z,43.29
2022-11-27T12:25:56.113Z,43.40
2022-11-27T12:28:23.205Z,43.09
2022-11-27T12:30:50.328Z,43.37
2022-11-27T12:33:17.425Z,43.38
2022-11-27T12:35:44.488Z,43.12
2022-11-27T12:38:11.602Z,43.36
2022-11-27T12:40:38.675Z,43.15
2022-11-27T12:43:05.796Z,43.34
2022-11-27T12:45:32.887Z,43.47
2022-11-27T12:48:00.036Z,43.44
2022-11-27T12:50:27.412Z,43.34
2022-11-27T12:52:54.500Z,43.37
2022-11-27T12:55:21.640Z,43.01
2022-11-27T12:57:48.727Z,43.29
2022-11-27T13:00:15.791Z,43.26
2022-11-27T13:02:42.941Z,43.26
2022-11-27T13:05:10.069Z,43.14
2022-11-27T13:07:40.051Z,43.16
2022-11-27T13:10:07.259Z,43.08
2022-11-27T13:12:34.343Z,43.34
2022-11-27T13:15:01.469Z,43.27
2022-11-27T13:17:28.603Z,43.09
2022-11-27T13:19:55.673Z,43.23
2022-11-27T13:22:27.405Z,43.23
2022-11-27T13:24:54.477Z,43.25
2022-11-27T13:27:23.628Z,42.93
2022-11-27T13:29:50.734Z,43.19
2022-11-27T13:32:17.806Z,43.05
2022-11-27T13:34:44.946Z,43.12
2022-11-27T13:37:12.018Z,43.22
2022-11-27T13:39:39.229Z,43.03
2022-11-27T13:42:06.793Z,43.22
2022-11-27T13:44:33.854Z,43.26
2022-11-27T13:47:00.924Z,43.13
2022-11-27T13:49:27.985Z,43.25
2022-11-27T13:51:55.251Z,43.14
2022-11-27T13:54:27.636Z,43.31
2022-11-27T13:56:56.158Z,43.11
2022-11-27T13:59:23.275Z,43.13
2022-11-27T14:01:50.383Z,43.00
2022-11-27T14:04:17.482Z,43.14
2022-11-27T14:06:44.630Z,43.11
2022-11-27T14:09:11.694Z,43.24
2022-11-27T14:11:40.208Z,43.49
2022-11-27T14:14:07.915Z,43.54
2022-11-27T14:16:35.052Z,43.14
2022-11-27T14:19:02.181Z,43.53
2022-11-27T14:21:29.249Z,43.05
2022-11-27T14:23:56.385Z,43.09
2022-11-27T14:26:23.504Z,42.93
2022-11-27T14:28:50.769Z,43.00
2022-11-27T14:31:17.860Z,43.08
2022-11-27T14:34:13.638Z,43.26
2022-11-27T14:36:32.530Z,43.03
2022-11-27T14:38:59.638Z,43.17
2022-11-27T14:41:26.697Z,43.11
2022-11-27T14:43:53.770Z,43.29
2022-11-27T14:46:20.945Z,43.10
2022-11-27T14:48:48.108Z,43.16
2022-11-27T14:51:15.194Z,43.04
2022-11-27T14:53:42.282Z,43.02
2022-11-27T14:56:09.350Z,43.00
2022-11-27T14:58:36.498Z,43.18
2022-11-27T15:01:03.655Z,43.15
2022-11-27T15:03:30.805Z,43.17
2022-11-27T15:05:58.015Z,42.88
2022-11-27T15:08:25.434Z,42.96
2022-11-27T15:10:53.068Z,43.12
2022-11-27T15:13:21.154Z,42.95
2022-11-27T15:15:48.603Z,43.18
2022-11-27T15:18:15.664Z,42.82
2022-11-27T15:20:42.762Z,43.01
2022-11-27T15:23:09.831Z,43.10
2022-11-27T15:25:37.023Z,43.02
2022-11-27T15:28:04.157Z,43.12
2022-11-27T15:30:31.270Z,42.98
2022-11-27T15:32:58.498Z,42.81
2022-11-27T15:35:25.643Z,43.12
2022-11-27T15:37:52.862Z,42.94
2022-11-27T15:40:20.471Z,43.04
2022-11-27T15:42:47.531Z,43.04
2022-11-27T15:45:14.660Z,42.82
2022-11-27T15:47:41.927Z,43.05
2022-11-27T15:50:09.002Z,43.09
2022-11-27T15:52:36.076Z,43.08
2022-11-27T15:55:03.178Z,43.11
2022-11-27T15:57:30.290Z,42.98
2022-11-27T15:59:57.360Z,43.08
2022-11-27T16:02:28.392Z,42.76
2022-11-27T16:04:55.515Z,43.04
2022-11-27T16:07:22.638Z,42.73
2022-11-27T16:09:49.841Z,42.94
2022-11-27T16:12:16.999Z,42.81
2022-11-27T16:14:44.068Z,43.20
2022-11-27T16:17:11.868Z,43.15
2022-11-27T16:19:38.946Z,43.05
2022-11-27T16:22:06.041Z,43.05
2022-11-27T16:24:33.120Z,43.21
2022-11-27T16:27:00.228Z,42.93
2022-11-27T16:29:27.380Z,42.84
2022-11-27T16:31:54.468Z,43.16
2022-11-27T16:34:21.649Z,42.99
2022-11-27T16:36:48.732Z,43.24
2022-11-27T16:39:15.854Z,43.13
2022-11-27T16:41:43.009Z,42.91
2022-11-27T16:44:10.113Z,43.26
2022-11-27T16:46:38.894Z,42.99
2022-11-27T16:49:09.198Z,43.04
2022-11-27T16:51:36.267Z,43.26
2022-11-27T16:54:03.397Z,43.26
2022-11-27T16:56:30.537Z,42.93
2022-11-27T16:59:02.812Z,42.98
2022-11-27T17:01:30.439Z,43.18
2022-11-27T17:03:57.889Z,43.30
2022-11-27T17:06:25.079Z,43.20
2022-11-27T17:08:52.173Z,43.03
2022-11-27T17:11:20.582Z,43.19
2022-11-27T17:13:47.767Z,43.32
2022-11-27T17:16:14.952Z,43.13
2022-11-27T17:18:42.085Z,43.25
2022-11-27T17:21:09.200Z,43.11
2022-11-27T17:23:36.263Z,43.14
2022-11-27T17:26:03.473Z,43.09
2022-11-27T17:28:33.551Z,43.20
2022-11-27T17:31:00.639Z,42.93
2022-11-27T17:33:30.649Z,43.10
2022-11-27T17:35:58.054Z,42.95
2022-11-27T17:38:25.169Z,43.17
2022-11-27T17:40:52.244Z,42.93
2022-11-27T17:43:19.306Z,43.16
2022-11-27T17:45:47.259Z,43.04
2022-11-27T17:48:15.865Z,43.25
2022-11-27T17:50:42.942Z,42.94
2022-11-27T17:53:10.565Z,43.02
2022-11-27T17:55:37.681Z,43.00
2022-11-27T17:58:05.357Z,42.96
2022-11-27T18:00:32.426Z,42.93
2022-11-27T18:03:02.308Z,43.17
2022-11-27T18:05:33.399Z,43.17
2022-11-27T18:08:00.658Z,43.05
2022-11-27T18:10:27.851Z,43.06
2022-11-27T18:12:54.992Z,42.95
2022-11-27T18:15:22.125Z,42.94
2022-11-27T18:17:49.229Z,42.92
2022-11-27T18:20:16.358Z,43.19
2022-11-27T18:22:43.450Z,42.88
2022-11-27T18:25:10.626Z,43.13
2022-11-27T18:27:37.791Z,43.17
2022-11-27T18:30:04.852Z,42.95
2022-11-27T18:32:32.087Z,42.97
2022-11-27T18:34:59.172Z,43.22
2022-11-27T18:37:26.234Z,42.89
2022-11-27T18:39:53.333Z,42.86
2022-11-27T18:42:20.497Z,43.19
2022-11-27T18:44:47.586Z,43.19
2022-11-27T18:47:16.999Z,43.18
2022-11-27T18:49:44.582Z,42.89
2022-11-27T18:52:11.864Z,43.13
2022-11-27T18:54:39.424Z,43.08
2022-11-27T18:57:07.116Z,42.96
2022-11-27T18:59:34.270Z,43.01
2022-11-27T19:02:01.444Z,43.21
2022-11-27T19:04:28.831Z,43.26
2022-11-27T19:06:55.965Z,43.05
2022-11-27T19:09:24.236Z,43.16
2022-11-27T19:11:51.304Z,43.21
2022-11-27T19:14:18.445Z,43.04
2022-11-27T19:16:46.940Z,42.99
2022-11-27T19:19:52.916Z,43.26
2022-11-27T19:22:01.261Z,43.15
2022-11-27T19:24:28.402Z,43.08
2022-11-27T19:26:57.727Z,43.16
2022-11-27T19:29:24.797Z,43.10
2022-11-27T19:31:52.224Z,43.21
2022-11-27T19:34:19.430Z,43.08
2022-11-27T19:36:46.623Z,43.18
2022-11-27T19:39:14.223Z,43.08
2022-11-27T19:41:41.322Z,43.28
2022-11-27T19:44:08.397Z,43.06
2022-11-27T19:46:35.760Z,43.16
2022-11-27T19:49:02.884Z,42.98
2022-11-27T19:51:29.980Z,43.21
2022-11-27T19:53:57.100Z,43.17
2022-11-27T19:56:27.066Z,43.18
2022-11-27T19:58:57.428Z,43.22
2022-11-27T20:01:24.657Z,43.00
2022-11-27T20:03:52.447Z,43.18
2022-11-27T20:06:19.707Z,43.04
2022-11-27T20:08:46.817Z,43.07
2022-11-27T20:11:13.887Z,43.18
2022-11-27T20:13:41.277Z,43.33
2022-11-27T20:16:09.909Z,43.25
2022-11-27T20:18:39.997Z,43.27
2022-11-27T20:21:07.294Z,43.22
2022-11-27T20:23:34.445Z,43.18
2022-11-27T20:26:01.750Z,43.03
2022-11-27T20:28:28.842Z,43.04
2022-11-27T20:30:55.934Z,43.35
2022-11-27T20:33:23.901Z,43.11
2022-11-27T20:35:50.979Z,43.07
2022-11-27T20:38:18.059Z,43.06
2022-11-27T20:40:45.117Z,43.03
2022-11-27T20:43:12.337Z,43.04
2022-11-27T20:45:39.486Z,43.09
2022-11-27T20:48:06.683Z,43.11
2022-11-27T20:50:34.260Z,43.05
2022-11-27T20:53:02.204Z,43.32
2022-11-27T20:55:29.276Z,43.00
2022-11-27T20:57:56.352Z,43.23
2022-11-27T21:00:23.477Z,43.23
2022-11-27T21:02:50.625Z,43.30
2022-11-27T21:05:17.755Z,43.39
2022-11-27T21:07:44.949Z,43.04
2022-11-27T21:10:12.144Z,43.24
2022-11-27T21:12:39.196Z,43.16
2022-11-27T21:15:06.348Z,43.13
2022-11-27T21:17:33.413Z,43.12
2022-11-27T21:20:06.350Z,43.29
2022-11-27T21:22:33.432Z,43.37
2022-11-27T21:25:00.524Z,43.33
2022-11-27T21:27:27.598Z,43.26
2022-11-27T21:29:54.667Z,43.29
2022-11-27T21:32:26.617Z,43.28
2022-11-27T21:34:53.798Z,43.13
2022-11-27T21:37:20.935Z,43.24
2022-11-27T21:39:48.005Z,43.13
2022-11-27T21:42:15.193Z,43.22
2022-11-27T21:44:42.556Z,43.18
2022-11-27T21:47:12.092Z,43.14
2022-11-27T21:49:39.470Z,43.28
2022-11-27T21:52:06.573Z,43.10
2022-11-27T21:54:33.753Z,43.09
2022-11-27T21:57:01.853Z,43.30
2022-11-27T21:59:29.010Z,43.15
2022-11-27T22:02:00.156Z,43.28
2022-11-27T22:04:27.455Z,43.02
2022-11-27T22:06:54.535Z,43.12
2022-11-27T22:09:21.670Z,43.07
2022-11-27T22:11:48.846Z,43.19
2022-11-27T22:14:16.014Z,43.31
2022-11-27T22:16:45.922Z,43.29
2022-11-27T22:19:14.241Z,43.08
2022-11-27T22:21:41.634Z,43.06
2022-11-27T22:24:12.069Z,43.29
2022-11-27T22:26:42.188Z,43.29
2022-11-27T22:29:09.353Z,43.13
2022-11-27T22:31:36.510Z,43.01
2022-11-27T22:34:03.834Z,43.20
2022-11-27T22:36:31.265Z,43.33
2022-11-27T22:38:58.353Z,43.37
2022-11-27T22:41:25.703Z,43.31
2022-11-27T22:43:52.831Z,43.07
2022-11-27T22:46:19.998Z,43.38
2022-11-27T22:48:47.151Z,43.20
2022-11-27T22:51:14.210Z,43.33
2022-11-27T22:53:41.328Z,43.10
2022-11-27T22:56:08.461Z,43.28
2022-11-27T22:58:40.997Z,43.17
2022-11-27T23:01:08.618Z,43.37
2022-11-27T23:03:35.830Z,43.17
2022-11-27T23:06:04.064Z,43.09
2022-11-27T23:08:33.146Z,43.19
2022-11-27T23:11:00.219Z,43.15
2022-11-27T23:13:27.316Z,43.10
2022-11-27T23:15:54.399Z,43.24
2022-11-27T23:18:21.829Z,43.16
2022-11-27T23:20:48.937Z,43.15
2022-11-27T23:23:16.023Z,43.04
2022-11-27T23:25:43.089Z,43.35
2022-11-27T23:28:10.170Z,43.30
2022-11-27T23:30:37.291Z,43.25
2022-11-27T23:33:04.435Z,43.19
2022-11-27T23:35:31.508Z,43.34
2022-11-27T23:37:58.602Z,43.23
2022-11-27T23:40:25.757Z,43.26
2022-11-27T23:42:52.845Z,43.17
2022-11-27T23:45:19.947Z,43.27
2022-11-27T23:47:47.687Z,43.31
2022-11-27T23:50:14.901Z,43.16
2022-11-27T23:52:42.041Z,43.20
2022-11-27T23:55:09.100Z,43.11
2022-11-27T23:57:36.180Z,43.31
